Time;durP1;ratioP1;P1;durP2;ratioP2;P2;SDS_P1;SDS_P2;PMS_P1;PMS_P2;Temp;Humidity;BMP_temperature;BMP_pressure;BME280_temperature;BME280_humidity;BME280_pressure;Samples;Min_cycle;Max_cycle;Signal;HPM_P1;HPM_P2
2022/07/16 03:03:16;;;;;;;3.17;0.93;;;18.80;67.10;;;;;;4976418;23;88365;-72
2022/07/16 03:05:41;;;;;;;2.92;0.90;;;18.70;67.00;;;;;;4894164;28;87688;-72
2022/07/16 03:08:07;;;;;;;2.35;0.85;;;18.70;66.80;;;;;;4894937;28;86978;-73
2022/07/16 03:10:33;;;;;;;7.43;0.73;;;18.70;66.90;;;;;;4899992;28;87803;-73
2022/07/16 03:12:59;;;;;;;3.58;0.70;;;18.70;66.70;;;;;;4901437;28;87460;-76
2022/07/16 03:15:24;;;;;;;3.22;0.75;;;18.70;67.10;;;;;;4900910;28;87007;-75
2022/07/16 03:17:50;;;;;;;5.18;0.50;;;18.60;67.40;;;;;;4895620;28;87218;-75
2022/07/16 03:20:16;;;;;;;3.90;0.80;;;18.50;67.60;;;;;;4899121;28;88155;-75
2022/07/16 03:22:45;;;;;;;4.97;1.02;;;18.40;67.70;;;;;;4900354;28;87887;-75
2022/07/16 03:25:11;;;;;;;3.25;0.90;;;18.40;68.70;;;;;;4900863;28;87112;-74
2022/07/16 03:27:37;;;;;;;2.80;0.50;;;18.40;68.60;;;;;;4901020;28;86943;-74
2022/07/16 03:30:03;;;;;;;5.68;0.93;;;18.30;68.70;;;;;;4898428;28;88966;-73
2022/07/16 03:32:29;;;;;;;4.50;0.82;;;18.30;68.80;;;;;;4898783;28;87034;-75
2022/07/16 03:34:55;;;;;;;4.20;0.80;;;18.20;68.90;;;;;;4900969;28;87141;-75
2022/07/16 03:37:21;;;;;;;3.13;1.00;;;18.20;69.20;;;;;;4900620;28;86109;-75
2022/07/16 03:39:46;;;;;;;3.75;0.82;;;18.20;69.10;;;;;;4900443;28;87126;-75
2022/07/16 03:42:12;;;;;;;6.15;0.70;;;18.20;68.80;;;;;;4900676;28;86992;-75
2022/07/16 03:44:38;;;;;;;4.10;0.70;;;18.20;69.10;;;;;;4899028;28;88153;-75
2022/07/16 03:47:03;;;;;;;6.15;0.80;;;18.20;69.00;;;;;;4899282;28;87047;-73
2022/07/16 03:49:29;;;;;;;3.80;0.80;;;18.20;68.90;;;;;;4900053;28;86999;-74
2022/07/16 03:51:55;;;;;;;2.55;0.65;;;18.20;68.80;;;;;;4899858;28;87017;-74
2022/07/16 03:54:20;;;;;;;3.53;0.70;;;18.30;69.60;;;;;;4900038;28;86479;-75
2022/07/16 03:56:46;;;;;;;4.10;1.20;;;18.30;70.10;;;;;;4898314;28;88530;-75
2022/07/16 03:59:12;;;;;;;3.78;0.82;;;18.40;70.30;;;;;;4899195;28;87235;-75
2022/07/16 04:01:39;;;;;;;3.10;1.15;;;18.40;69.80;;;;;;4894684;28;87223;-74
2022/07/16 04:04:05;;;;;;;2.35;0.63;;;18.40;70.20;;;;;;4889990;28;86912;-75
2022/07/16 04:06:30;;;;;;;2.40;0.93;;;18.40;69.40;;;;;;4883708;28;86968;-75
2022/07/16 04:08:56;;;;;;;5.65;1.13;;;18.60;69.00;;;;;;4871392;28;88718;-74
2022/07/16 04:11:22;;;;;;;5.28;1.00;;;18.70;68.40;;;;;;4887747;28;87687;-74
2022/07/16 04:13:47;;;;;;;3.50;1.08;;;18.80;68.50;;;;;;4900019;28;87428;-74
2022/07/16 04:16:13;;;;;;;5.72;1.15;;;19.00;67.90;;;;;;4899884;28;87050;-75
2022/07/16 04:18:39;;;;;;;2.75;1.00;;;19.20;67.70;;;;;;4899438;28;87642;-74
2022/07/16 04:21:05;;;;;;;2.28;0.75;;;19.60;67.10;;;;;;4878536;28;87494;-75
2022/07/16 04:23:31;;;;;;;5.15;1.67;;;20.00;66.00;;;;;;4880746;28;87019;-74
2022/07/16 04:25:57;;;;;;;4.18;0.70;;;20.40;64.70;;;;;;4880191;28;87243;-74
2022/07/16 04:28:23;;;;;;;3.05;0.90;;;20.70;64.50;;;;;;4880552;28;87745;-75
2022/07/16 04:30:49;;;;;;;4.97;1.02;;;21.10;64.10;;;;;;4880403;28;87079;-74
2022/07/16 04:33:14;;;;;;;4.40;0.98;;;21.60;62.70;;;;;;4874946;28;87521;-75
2022/07/16 04:35:40;;;;;;;3.30;1.20;;;22.00;61.80;;;;;;4880848;28;87102;-75
2022/07/16 04:38:06;;;;;;;4.80;1.10;;;22.30;59.70;;;;;;4889088;28;87066;-75
2022/07/16 04:40:31;;;;;;;3.40;0.93;;;22.50;59.20;;;;;;4876793;28;87222;-75
2022/07/16 04:42:57;;;;;;;3.00;1.02;;;22.80;59.30;;;;;;4880160;28;87044;-74
2022/07/16 04:45:23;;;;;;;4.18;1.02;;;23.20;57.60;;;;;;4876965;28;87086;-74
2022/07/16 04:47:48;;;;;;;4.93;1.08;;;23.40;58.00;;;;;;4876571;28;87719;-74
2022/07/16 04:50:14;;;;;;;4.53;1.00;;;23.70;56.60;;;;;;4879165;28;86291;-74
2022/07/16 04:52:40;;;;;;;5.55;1.02;;;24.00;56.20;;;;;;4874883;28;87062;-75
2022/07/16 04:55:08;;;;;;;1.90;0.77;;;24.50;55.40;;;;;;4874392;28;87259;-75
2022/07/16 04:57:33;;;;;;;4.05;0.82;;;25.10;54.10;;;;;;4868319;28;88204;-75
2022/07/16 04:59:59;;;;;;;4.68;1.25;;;25.10;52.80;;;;;;4879534;28;87904;-75
2022/07/16 05:05:09;;;;;;;4.43;1.10;;;25.20;53.30;;;;;;4861423;29;86969;-75
2022/07/16 05:07:35;;;;;;;3.15;1.23;;;25.90;52.30;;;;;;4862016;28;87818;-77
2022/07/16 05:10:01;;;;;;;5.55;1.17;;;26.60;50.20;;;;;;4879172;28;87404;-77
2022/07/16 05:12:27;;;;;;;3.17;1.08;;;27.20;50.10;;;;;;4896350;28;87005;-76
2022/07/16 05:14:53;;;;;;;3.83;1.00;;;27.70;48.50;;;;;;4879870;28;87411;-76
2022/07/16 05:17:18;;;;;;;4.13;1.45;;;28.10;47.30;;;;;;4880098;28;86983;-75
2022/07/16 05:19:44;;;;;;;3.42;1.63;;;27.50;48.00;;;;;;4879882;28;87127;-77
2022/07/16 05:22:10;;;;;;;3.30;1.45;;;26.80;49.50;;;;;;4879362;28;87848;-76
2022/07/16 05:24:36;;;;;;;2.45;1.13;;;26.30;49.80;;;;;;4880242;28;87531;-76
2022/07/16 05:27:02;;;;;;;5.18;1.40;;;26.20;49.40;;;;;;4878126;28;87075;-76
2022/07/16 05:29:28;;;;;;;3.22;1.65;;;25.90;50.70;;;;;;4878949;28;87240;-76
2022/07/16 05:31:54;;;;;;;4.53;1.20;;;26.50;50.00;;;;;;4880409;28;87271;-76
2022/07/16 05:34:19;;;;;;;9.15;2.00;;;27.10;49.60;;;;;;4880050;28;86901;-77
2022/07/16 05:36:45;;;;;;;5.57;1.10;;;26.90;49.40;;;;;;4880046;28;87050;-76
2022/07/16 05:39:11;;;;;;;3.45;1.60;;;27.30;50.10;;;;;;4878956;28;86219;-76
2022/07/16 05:41:36;;;;;;;5.85;1.65;;;28.40;48.40;;;;;;4877354;28;87606;-74
2022/07/16 05:44:02;;;;;;;3.45;1.23;;;29.40;45.50;;;;;;4879801;28;87516;-74
2022/07/16 05:46:28;;;;;;;5.43;1.30;;;29.70;45.70;;;;;;4879838;28;88120;-73
2022/07/16 05:48:54;;;;;;;6.00;1.65;;;30.00;44.80;;;;;;4879433;28;87900;-72
2022/07/16 05:51:19;;;;;;;3.50;1.38;;;30.00;45.60;;;;;;4879824;28;87152;-74
2022/07/16 05:53:45;;;;;;;4.88;1.50;;;30.00;46.10;;;;;;4867808;28;87283;-77
2022/07/16 05:56:11;;;;;;;2.97;1.45;;;30.70;45.20;;;;;;4881608;28;87187;-77
2022/07/16 05:58:37;;;;;;;4.50;1.63;;;30.60;44.80;;;;;;4883231;28;88285;-77
2022/07/16 06:01:02;;;;;;;3.45;1.50;;;31.70;43.10;;;;;;4883091;28;87180;-75
2022/07/16 06:03:28;;;;;;;4.88;1.70;;;31.80;42.60;;;;;;4882284;28;86399;-75
2022/07/16 06:05:54;;;;;;;3.63;1.45;;;31.50;42.80;;;;;;4872980;28;87189;-75
2022/07/16 06:08:19;;;;;;;5.13;1.40;;;31.40;43.30;;;;;;4866678;28;87076;-76
2022/07/16 06:10:45;;;;;;;6.63;1.48;;;31.70;41.70;;;;;;4886910;28;88260;-75
2022/07/16 06:13:11;;;;;;;7.32;1.60;;;32.10;41.60;;;;;;4900728;28;86907;-76
2022/07/16 06:15:37;;;;;;;3.78;1.52;;;33.50;40.10;;;;;;4885970;28;87131;-75
2022/07/16 06:18:03;;;;;;;4.68;2.28;;;34.70;38.70;;;;;;4878979;28;87255;-73
2022/07/16 06:20:29;;;;;;;5.65;1.98;;;35.10;37.90;;;;;;4890412;28;87141;-74
2022/07/16 06:22:56;;;;;;;4.97;1.55;;;35.90;37.80;;;;;;4890922;28;87171;-74
2022/07/16 06:25:22;;;;;;;3.13;1.50;;;36.40;36.20;;;;;;4892336;28;87285;-73
2022/07/16 06:27:48;;;;;;;5.55;1.92;;;36.90;35.80;;;;;;4881910;28;86706;-74
2022/07/16 06:30:14;;;;;;;5.63;2.13;;;36.60;36.70;;;;;;4878919;28;87174;-73
2022/07/16 06:32:40;;;;;;;4.93;1.80;;;36.60;35.90;;;;;;4876817;28;87414;-74
2022/07/16 06:35:06;;;;;;;6.30;2.17;;;36.20;36.40;;;;;;4869851;28;88556;-66
2022/07/16 06:37:32;;;;;;;5.97;2.58;;;35.80;36.40;;;;;;4867669;28;88951;-68
2022/07/16 06:39:57;;;;;;;4.57;1.85;;;35.90;36.60;;;;;;4862150;29;87282;-67
2022/07/16 06:42:23;;;;;;;6.07;2.00;;;37.20;35.40;;;;;;4868575;28;86910;-67
2022/07/16 06:44:49;;;;;;;5.05;1.92;;;36.40;35.60;;;;;;4875480;28;88319;-67
2022/07/16 06:47:14;;;;;;;5.72;2.00;;;35.40;37.80;;;;;;4880155;28;87120;-69
2022/07/16 06:49:40;;;;;;;4.88;1.88;;;35.60;37.80;;;;;;4879315;28;87433;-67
2022/07/16 06:52:07;;;;;;;4.53;1.95;;;36.80;36.20;;;;;;4877950;28;86420;-69
2022/07/16 06:54:32;;;;;;;3.20;2.20;;;36.90;35.70;;;;;;4879968;28;88022;-68
2022/07/16 06:56:58;;;;;;;3.65;2.33;;;37.20;35.60;;;;;;4862075;28;87825;-67
2022/07/16 06:59:24;;;;;;;4.45;1.55;;;36.60;36.60;;;;;;4866787;28;88060;-70
2022/07/16 07:01:50;;;;;;;6.50;1.83;;;36.80;35.50;;;;;;4838056;28;1234627;-68
2022/07/16 07:04:15;;;;;;;6.03;2.00;;;36.70;35.00;;;;;;4881105;28;88678;-74
2022/07/16 07:06:41;;;;;;;5.68;2.10;;;35.50;36.60;;;;;;4881632;28;87058;-69
2022/07/16 07:09:07;;;;;;;5.78;2.70;;;37.40;35.10;;;;;;4869198;28;87085;-68
2022/07/16 07:11:32;;;;;;;3.80;2.63;;;38.50;33.10;;;;;;4887234;28;87356;-71
2022/07/16 07:13:58;;;;;;;10.30;3.50;;;38.90;33.40;;;;;;4901180;28;87711;-70
2022/07/16 07:16:24;;;;;;;5.50;2.58;;;40.00;33.30;;;;;;4887102;28;87797;-70
2022/07/16 07:18:49;;;;;;;9.40;2.13;;;39.70;32.60;;;;;;4875266;28;87020;-72
2022/07/16 07:21:15;;;;;;;6.15;2.63;;;38.60;32.70;;;;;;4862723;29;87056;-71
2022/07/16 07:23:41;;;;;;;7.10;2.75;;;38.20;33.80;;;;;;4861805;29;88997;-71
2022/07/16 07:26:07;;;;;;;9.95;2.65;;;39.30;33.00;;;;;;4862833;29;88748;-71
2022/07/16 07:28:32;;;;;;;3.65;2.17;;;39.60;32.10;;;;;;4862894;29;86642;-71
2022/07/16 07:30:58;;;;;;;5.68;1.92;;;40.50;31.30;;;;;;4868164;28;87677;-72
2022/07/16 07:33:25;;;;;;;7.13;2.47;;;40.60;30.60;;;;;;4862621;29;86962;-70
2022/07/16 07:35:51;;;;;;;8.02;3.33;;;41.50;31.10;;;;;;4868229;28;87870;-74
2022/07/16 07:38:17;;;;;;;5.55;2.97;;;43.10;30.30;;;;;;4879495;28;87117;-74
2022/07/16 07:40:43;;;;;;;9.30;3.00;;;43.50;29.80;;;;;;4878179;28;86259;-74
2022/07/16 07:43:08;;;;;;;6.38;3.10;;;43.30;29.80;;;;;;4874626;28;87183;-74
2022/07/16 07:45:34;;;;;;;5.32;2.72;;;43.10;30.00;;;;;;4877795;28;86970;-73
2022/07/16 07:48:00;;;;;;;4.70;2.90;;;43.30;29.70;;;;;;4876860;28;88124;-72
2022/07/16 07:50:26;;;;;;;7.15;2.85;;;44.00;29.40;;;;;;4878897;28;87039;-73
2022/07/16 07:52:52;;;;;;;4.38;2.70;;;43.30;28.90;;;;;;4880173;28;87349;-73
2022/07/16 07:55:19;;;;;;;8.00;3.42;;;44.10;28.70;;;;;;4876913;28;87484;-73
2022/07/16 07:57:45;;;;;;;5.00;3.00;;;45.40;28.40;;;;;;4872891;28;87795;-73
2022/07/16 08:00:11;;;;;;;7.72;3.85;;;44.90;28.60;;;;;;4874422;28;87024;-73
2022/07/16 08:02:37;;;;;;;5.55;3.95;;;44.20;28.90;;;;;;4875312;28;87673;-73
2022/07/16 08:05:04;;;;;;;4.20;3.28;;;43.80;29.30;;;;;;4875149;28;86329;-74
2022/07/16 08:07:29;;;;;;;7.78;3.50;;;44.60;29.00;;;;;;4874074;28;87027;-74
2022/07/16 08:09:55;;;;;;;7.07;3.20;;;45.30;28.70;;;;;;4870769;28;87114;-73
2022/07/16 08:12:21;;;;;;;4.88;3.35;;;43.70;29.10;;;;;;4875181;28;87952;-74
2022/07/16 08:14:46;;;;;;;6.18;3.75;;;44.00;29.20;;;;;;4868178;28;87917;-74
2022/07/16 08:17:12;;;;;;;6.80;3.50;;;45.40;29.50;;;;;;4871552;28;87423;-73
2022/07/16 08:19:38;;;;;;;9.45;3.53;;;45.20;29.40;;;;;;4874139;28;86985;-74
2022/07/16 08:22:04;;;;;;;8.57;3.83;;;45.10;29.10;;;;;;4876277;28;87353;-75
2022/07/16 08:27:14;;;;;;;10.80;3.85;;;45.40;28.80;;;;;;4879748;28;87107;-76
2022/07/16 08:29:40;;;;;;;4.78;4.03;;;43.70;29.40;;;;;;4879725;28;86402;-74
2022/07/16 08:32:06;;;;;;;6.05;3.85;;;44.10;29.30;;;;;;4881635;28;87538;-75
2022/07/16 08:34:32;;;;;;;9.45;3.72;;;43.80;29.60;;;;;;4877647;28;87433;-74
2022/07/16 08:36:58;;;;;;;5.60;3.13;;;44.70;29.40;;;;;;4875501;28;88475;-75
2022/07/16 08:39:23;;;;;;;6.13;3.70;;;45.30;29.20;;;;;;4874747;28;87362;-75
2022/07/16 08:41:50;;;;;;;4.88;3.97;;;45.10;28.90;;;;;;4880480;28;89181;-76
2022/07/16 08:44:16;;;;;;;5.32;4.55;;;46.00;28.20;;;;;;4876241;28;87873;-75
2022/07/16 08:46:42;;;;;;;5.47;3.72;;;46.90;28.50;;;;;;4877101;28;87142;-75
2022/07/16 08:49:09;;;;;;;5.97;4.43;;;44.90;28.60;;;;;;4876856;28;87723;-74
2022/07/16 08:51:37;;;;;;;7.03;4.47;;;45.10;28.40;;;;;;4874125;28;87261;-74
2022/07/16 08:54:12;;;;;;;5.07;4.57;;;45.60;28.00;;;;;;4873443;28;86960;-76
2022/07/16 08:56:37;;;;;;;;;;;44.30;28.60;;;;;;4875477;28;87151;-77
2022/07/16 08:59:05;;;;;;;3.83;3.20;;;44.80;29.00;;;;;;4885348;28;87508;-74
2022/07/16 09:01:32;;;;;;;4.70;4.28;;;46.60;28.00;;;;;;4885617;28;88403;-75
2022/07/16 09:03:59;;;;;;;7.80;4.38;;;47.70;27.60;;;;;;4895458;28;87602;-73
2022/07/16 09:06:26;;;;;;;7.07;4.20;;;47.90;26.70;;;;;;4877409;28;87191;-75
2022/07/16 09:08:52;;;;;;;6.28;5.50;;;48.80;26.50;;;;;;4875055;28;87228;-73
2022/07/16 09:11:21;;;;;;;6.85;4.65;;;45.90;27.40;;;;;;4875777;28;87251;-76
2022/07/16 09:14:10;;;;;;;6.82;5.53;;;44.70;28.20;;;;;;4879827;28;88550;-72
2022/07/16 09:16:38;;;;;;;8.90;4.30;;;47.20;28.00;;;;;;4879707;28;87039;-74
2022/07/16 09:19:11;;;;;;;5.65;5.15;;;47.50;27.30;;;;;;4878319;28;86139;-73
2022/07/16 09:21:57;;;;;;;7.57;4.40;;;46.90;27.90;;;;;;4877051;28;87400;-76
2022/07/16 09:24:43;;;;;;;6.05;4.75;;;46.80;27.80;;;;;;4871053;28;87530;-75
2022/07/16 09:27:11;;;;;;;5.95;5.43;;;48.30;27.80;;;;;;4872826;28;87980;-77
2022/07/16 09:29:51;;;;;;;5.40;4.85;;;50.20;27.00;;;;;;4880869;28;87261;-74
2022/07/16 09:32:36;;;;;;;5.40;4.68;;;49.30;27.30;;;;;;4879014;28;88299;-76
2022/07/16 09:35:09;;;;;;;6.13;5.55;;;50.10;26.70;;;;;;4878168;28;87327;-79
2022/07/16 09:37:54;;;;;;;5.63;5.03;;;50.30;26.40;;;;;;4880324;28;87516;-74
2022/07/16 09:40:45;;;;;;;7.15;5.32;;;50.20;26.90;;;;;;4880255;28;86810;-76
2022/07/16 09:43:13;;;;;;;8.10;5.93;;;51.30;26.20;;;;;;4879497;28;87451;-77
2022/07/16 09:45:44;;;;;;;8.02;5.25;;;50.40;26.70;;;;;;4871638;28;86981;-71
2022/07/16 09:48:20;;;;;;;9.88;5.65;;;50.80;26.00;;;;;;4872546;28;87375;-71
2022/07/16 09:50:46;;;;;;;6.63;5.97;;;50.70;26.30;;;;;;4875805;28;87894;-72
2022/07/16 09:53:21;;;;;;;6.85;5.75;;;50.40;26.60;;;;;;4875100;28;88255;-75
2022/07/16 09:55:55;;;;;;;6.63;5.47;;;49.20;26.80;;;;;;4873828;28;90229;-72
2022/07/16 09:58:21;;;;;;;6.13;5.55;;;50.10;27.00;;;;;;4872248;28;86566;-72
2022/07/16 10:00:47;;;;;;;12.85;6.07;;;50.50;26.10;;;;;;4869814;28;87540;-72
2022/07/16 10:03:14;;;;;;;6.07;5.38;;;50.40;26.50;;;;;;4872739;28;87597;-74
2022/07/16 10:05:41;;;;;;;5.40;4.85;;;49.20;26.70;;;;;;4872832;28;87941;-73
2022/07/16 10:08:06;;;;;;;7.95;5.88;;;48.70;26.80;;;;;;4873773;28;87115;-74
2022/07/16 10:10:32;;;;;;;9.20;5.65;;;48.50;27.80;;;;;;4878331;28;86396;-71
2022/07/16 10:12:58;;;;;;;6.78;5.55;;;48.00;27.50;;;;;;4877256;28;87308;-77
2022/07/16 10:15:24;;;;;;;7.70;4.57;;;47.20;27.30;;;;;;4873570;28;87967;-77
2022/07/16 10:17:49;;;;;;;6.90;5.63;;;43.50;28.30;;;;;;4877184;28;88115;-72
2022/07/16 10:20:20;;;;;;;6.63;4.60;;;39.60;30.60;;;;;;4876131;28;87453;-77
2022/07/16 10:22:47;;;;;;;3.60;3.22;;;37.20;34.10;;;;;;4875217;28;87232;-74
2022/07/16 10:25:28;;;;;;;3.88;3.47;;;36.90;34.30;;;;;;4869415;28;88281;-73
2022/07/16 10:27:54;;;;;;;3.33;2.63;;;35.50;35.20;;;;;;4873709;28;86992;-75
2022/07/16 10:30:22;;;;;;;5.07;2.67;;;33.50;39.00;;;;;;4879029;28;87790;-72
2022/07/16 10:33:02;;;;;;;5.45;2.83;;;33.10;38.80;;;;;;4877526;28;88033;-71
2022/07/16 10:35:40;;;;;;;4.40;1.70;;;32.60;39.60;;;;;;4876997;28;87196;-73
2022/07/16 10:38:07;;;;;;;4.18;2.72;;;32.80;39.70;;;;;;4863354;28;87600;-74
2022/07/16 10:40:36;;;;;;;5.30;2.60;;;32.30;40.50;;;;;;4871699;28;89120;-71
2022/07/16 10:43:22;;;;;;;4.63;2.33;;;31.30;41.50;;;;;;4870653;28;89816;-74
2022/07/16 10:46:00;;;;;;;5.32;2.42;;;31.30;42.40;;;;;;4879606;28;87800;-73
2022/07/16 10:48:31;;;;;;;3.80;1.77;;;30.50;42.50;;;;;;4881361;28;86934;-70
2022/07/16 10:51:19;;;;;;;6.45;1.90;;;30.00;44.20;;;;;;4874813;28;87687;-71
2022/07/16 10:53:57;;;;;;;4.22;1.35;;;29.50;44.60;;;;;;4880984;28;87317;-75
2022/07/16 10:56:38;;;;;;;5.55;2.10;;;29.50;44.50;;;;;;4874358;28;87844;-76
2022/07/16 10:59:07;;;;;;;7.50;1.95;;;29.80;44.80;;;;;;4882321;28;86886;-73
2022/07/16 11:01:38;;;;;;;4.47;1.38;;;30.30;42.60;;;;;;4880906;28;86680;-71
2022/07/16 11:04:05;;;;;;;6.53;1.95;;;29.80;43.50;;;;;;4877515;28;87089;-76
2022/07/16 11:06:32;;;;;;;5.35;1.55;;;29.50;43.70;;;;;;4862338;29;87046;-71
2022/07/16 11:08:59;;;;;;;5.32;1.52;;;29.60;44.10;;;;;;4862100;29;88090;-69
2022/07/16 11:11:40;;;;;;;3.25;1.60;;;29.00;44.80;;;;;;4884336;28;87161;-75
2022/07/16 11:14:09;;;;;;;3.17;1.50;;;29.30;44.80;;;;;;4900956;28;87301;-72
2022/07/16 11:16:35;;;;;;;4.10;1.55;;;29.30;45.70;;;;;;4890017;28;87972;-78
2022/07/16 11:19:05;;;;;;;4.72;1.70;;;29.60;42.80;;;;;;4863057;29;87326;-74
2022/07/16 11:21:31;;;;;;;3.83;1.52;;;29.20;47.50;;;;;;4862440;29;86947;-72
2022/07/16 11:24:01;;;;;;;5.85;1.70;;;29.00;45.30;;;;;;4862941;29;87203;-75
2022/07/16 11:26:30;;;;;;;4.38;1.60;;;29.10;47.30;;;;;;4862715;29;86975;-69
2022/07/16 11:28:58;;;;;;;3.70;1.55;;;28.90;45.30;;;;;;4865080;28;86986;-73
2022/07/16 11:31:30;;;;;;;4.80;1.88;;;28.40;48.50;;;;;;4880811;28;87079;-75
2022/07/16 11:34:05;;;;;;;4.57;1.40;;;28.70;47.70;;;;;;4881539;28;87991;-79
2022/07/16 11:36:36;;;;;;;5.55;1.77;;;28.40;46.60;;;;;;4882145;28;88281;-72
2022/07/16 11:39:02;;;;;;;3.45;1.50;;;28.40;47.70;;;;;;4881599;28;87007;-72
2022/07/16 11:41:31;;;;;;;4.45;1.92;;;28.40;46.10;;;;;;4879984;28;86959;-71
2022/07/16 11:43:56;;;;;;;2.65;1.20;;;28.50;48.60;;;;;;4881279;28;86922;-75
2022/07/16 11:46:28;;;;;;;4.88;1.60;;;28.90;46.90;;;;;;4881148;28;87804;-76
2022/07/16 11:48:54;;;;;;;3.40;1.55;;;29.20;45.20;;;;;;4881887;28;86179;-71
2022/07/16 11:51:21;;;;;;;5.60;1.40;;;28.80;47.50;;;;;;4880428;28;86827;-72
2022/07/16 11:53:55;;;;;;;3.47;1.52;;;28.80;46.00;;;;;;4876974;28;87252;-71
2022/07/16 11:56:32;;;;;;;8.55;1.75;;;28.40;46.60;;;;;;4862337;29;86912;-71
2022/07/16 11:58:58;;;;;;;6.18;1.50;;;28.60;45.60;;;;;;4876863;28;88066;-71
2022/07/16 12:01:24;;;;;;;5.38;1.65;;;28.40;45.50;;;;;;4880926;28;87074;-73
2022/07/16 12:03:54;;;;;;;4.38;1.55;;;28.10;46.90;;;;;;4880862;28;87093;-72
2022/07/16 12:06:20;;;;;;;4.38;1.83;;;28.30;47.50;;;;;;4878416;28;87808;-71
2022/07/16 12:08:53;;;;;;;3.95;1.52;;;28.40;48.00;;;;;;4861839;29;86996;-72
2022/07/16 12:11:19;;;;;;;4.03;1.38;;;28.10;46.80;;;;;;4873132;28;87058;-74
2022/07/16 12:13:54;;;;;;;4.43;1.88;;;28.40;49.40;;;;;;4880967;28;87482;-74
2022/07/16 12:16:21;;;;;;;4.05;1.42;;;28.50;47.10;;;;;;4881120;28;86210;-74
2022/07/16 12:19:21;;;;;;;4.13;1.50;;;28.70;46.40;;;;;;4880809;28;87088;-73
2022/07/16 12:21:48;;;;;;;2.33;1.27;;;28.90;46.00;;;;;;4866551;28;86916;-72
2022/07/16 12:24:14;;;;;;;4.30;1.48;;;28.50;45.30;;;;;;4876647;28;89750;-72
2022/07/16 12:26:41;;;;;;;3.80;1.15;;;28.20;45.50;;;;;;4880319;28;88813;-77
2022/07/16 12:29:11;;;;;;;2.72;1.50;;;28.10;46.80;;;;;;4880777;28;87223;-71
2022/07/16 12:31:38;;;;;;;4.88;1.40;;;28.40;45.80;;;;;;4879921;28;86964;-71
2022/07/16 12:34:05;;;;;;;4.45;1.38;;;28.30;49.00;;;;;;4879263;28;88073;-72
2022/07/16 12:36:35;;;;;;;2.63;1.23;;;28.20;46.70;;;;;;4880375;28;87140;-73
2022/07/16 12:39:06;;;;;;;4.65;1.50;;;28.40;47.70;;;;;;4880013;28;86760;-71
2022/07/16 12:41:40;;;;;;;4.25;1.40;;;28.60;46.40;;;;;;4881396;28;86248;-75
2022/07/16 12:44:14;;;;;;;4.97;1.23;;;28.60;47.60;;;;;;4881081;28;88518;-71
2022/07/16 12:46:44;;;;;;;6.55;1.70;;;28.40;46.50;;;;;;4880402;28;87228;-72
2022/07/16 12:49:13;;;;;;;4.10;1.40;;;28.50;46.60;;;;;;4880072;28;88004;-70
2022/07/16 12:51:41;;;;;;;;;;;28.30;46.90;;;;;;4868898;28;86926;-72
2022/07/16 12:54:08;;;;;;;4.97;1.15;;;28.50;46.00;;;;;;4863978;29;87541;-71
2022/07/16 12:59:20;;;;;;;5.65;1.52;;;28.10;46.20;;;;;;4862053;29;87046;-71
2022/07/16 13:01:46;;;;;;;8.38;1.52;;;27.90;45.80;;;;;;4861743;28;86943;-71
2022/07/16 13:04:12;;;;;;;4.07;1.58;;;27.70;45.90;;;;;;4867671;29;87323;-72
2022/07/16 13:06:38;;;;;;;2.70;1.48;;;27.60;47.80;;;;;;4884671;28;87018;-75
2022/07/16 13:09:06;;;;;;;3.60;1.13;;;27.90;46.10;;;;;;4887125;28;87256;-71
2022/07/16 13:11:34;;;;;;;6.05;1.55;;;27.90;45.80;;;;;;4886351;28;87415;-73
2022/07/16 13:14:01;;;;;;;3.53;1.20;;;28.30;44.90;;;;;;4885532;28;88233;-74
2022/07/16 13:16:27;;;;;;;4.68;1.35;;;28.20;46.50;;;;;;4886284;28;87102;-71
2022/07/16 13:18:55;;;;;;;5.93;1.80;;;28.10;46.60;;;;;;4886935;28;86549;-71
2022/07/16 13:21:23;;;;;;;5.28;1.52;;;28.30;45.10;;;;;;4869031;28;87793;-72
2022/07/16 13:23:49;;;;;;;2.92;1.30;;;28.50;44.80;;;;;;4867057;29;87884;-74
2022/07/16 13:26:16;;;;;;;5.15;1.20;;;28.20;44.50;;;;;;4868117;29;86849;-74
2022/07/16 13:28:42;;;;;;;5.57;1.60;;;27.90;45.30;;;;;;4867146;29;86948;-71
2022/07/16 13:31:08;;;;;;;5.47;1.80;;;27.90;46.50;;;;;;4867544;29;85924;-70
2022/07/16 13:33:34;;;;;;;3.15;1.10;;;27.90;44.80;;;;;;4866799;28;87297;-75
2022/07/16 13:36:00;;;;;;;4.50;1.30;;;27.70;46.10;;;;;;4866861;28;87006;-71
2022/07/16 13:38:26;;;;;;;3.67;1.50;;;27.80;45.50;;;;;;4866805;29;87881;-74
2022/07/16 13:40:52;;;;;;;2.95;1.40;;;27.70;45.50;;;;;;4867273;29;87038;-75
2022/07/16 13:43:19;;;;;;;5.65;1.45;;;27.80;45.80;;;;;;4867433;29;87258;-74
2022/07/16 13:45:46;;;;;;;4.65;1.52;;;27.50;44.90;;;;;;4867202;29;87010;-71
2022/07/16 13:48:12;;;;;;;3.15;1.20;;;27.60;45.20;;;;;;4883650;28;87062;-73
2022/07/16 13:50:40;;;;;;;3.65;1.20;;;27.70;44.70;;;;;;4886257;28;87089;-74
2022/07/16 13:53:05;;;;;;;4.45;1.35;;;27.80;46.00;;;;;;4886181;28;87092;-71
2022/07/16 13:55:31;;;;;;;4.07;1.40;;;27.60;43.80;;;;;;4886498;28;86874;-73
2022/07/16 14:00:59;;;;;;;2.78;1.45;;;27.90;43.30;;;;;;4885544;28;87188;-74
2022/07/16 14:03:26;;;;;;;3.35;1.33;;;27.80;43.40;;;;;;4884872;28;88142;-71
2022/07/16 14:05:53;;;;;;;5.05;1.42;;;27.80;44.20;;;;;;4885429;28;87033;-71
2022/07/16 14:08:20;;;;;;;3.08;1.20;;;28.00;43.10;;;;;;4886169;28;87012;-76
2022/07/16 14:10:46;;;;;;;2.70;1.10;;;28.10;43.20;;;;;;4891763;28;86572;-71
2022/07/16 14:13:11;;;;;;;2.67;1.08;;;28.20;43.50;;;;;;4904888;28;87280;-74
2022/07/16 14:15:38;;;;;;;3.20;1.27;;;28.20;44.90;;;;;;4890003;28;86963;-72
2022/07/16 14:18:07;;;;;;;3.85;1.20;;;28.00;42.00;;;;;;4882900;28;87479;-70
2022/07/16 14:20:34;;;;;;;1.98;0.98;;;27.80;41.20;;;;;;4882824;28;86370;-71
2022/07/16 14:23:00;;;;;;;3.58;1.10;;;27.70;42.80;;;;;;4883251;28;86983;-74
2022/07/16 14:25:26;;;;;;;3.65;1.50;;;27.80;43.10;;;;;;4882801;28;87041;-75
2022/07/16 14:27:52;;;;;;;4.65;1.33;;;27.90;42.40;;;;;;4882802;28;87953;-75
2022/07/16 14:30:19;;;;;;;4.03;1.17;;;27.80;41.40;;;;;;4881743;28;86893;-73
2022/07/16 14:32:46;;;;;;;3.38;1.27;;;27.80;42.20;;;;;;4882425;28;87092;-72
2022/07/16 14:35:12;;;;;;;3.92;1.20;;;28.00;41.60;;;;;;4882504;28;86977;-73
2022/07/16 14:37:40;;;;;;;5.00;1.20;;;27.80;42.70;;;;;;4882593;28;86571;-72
2022/07/16 14:40:07;;;;;;;2.95;1.42;;;27.50;42.70;;;;;;4882991;28;86942;-71
2022/07/16 14:42:36;;;;;;;7.40;1.55;;;27.60;41.80;;;;;;4882121;28;90554;-70
2022/07/16 14:45:04;;;;;;;3.58;1.10;;;27.60;42.70;;;;;;4881689;28;86160;-73
2022/07/16 14:47:29;;;;;;;4.90;1.13;;;27.40;41.10;;;;;;4879030;28;87208;-77
2022/07/16 14:49:55;;;;;;;3.53;1.35;;;27.50;42.10;;;;;;4883000;28;87073;-72
2022/07/16 14:52:21;;;;;;;2.80;1.05;;;27.80;40.40;;;;;;4882085;28;89332;-73
2022/07/16 14:54:46;;;;;;;2.97;1.15;;;27.80;41.60;;;;;;4882162;28;88905;-73
2022/07/16 14:57:12;;;;;;;4.43;1.25;;;27.90;41.70;;;;;;4882279;28;86902;-75
2022/07/16 14:59:38;;;;;;;4.90;1.15;;;28.00;40.90;;;;;;4880895;28;87488;-70
2022/07/16 15:02:03;;;;;;;3.67;1.48;;;28.00;41.80;;;;;;4879862;28;87159;-79
2022/07/16 15:04:29;;;;;;;6.22;1.30;;;28.00;40.10;;;;;;4881855;28;87354;-73
2022/07/16 15:06:55;;;;;;;3.53;1.15;;;27.90;38.90;;;;;;4882519;28;86919;-70
2022/07/16 15:09:21;;;;;;;2.83;1.10;;;27.70;40.80;;;;;;4882179;28;86420;-72
2022/07/16 15:11:47;;;;;;;6.30;1.20;;;27.70;41.60;;;;;;4876013;28;86990;-70
2022/07/16 15:14:13;;;;;;;2.53;0.98;;;27.60;41.70;;;;;;4881515;28;86955;-73
2022/07/16 15:16:39;;;;;;;2.45;0.98;;;27.70;42.30;;;;;;4881218;28;87667;-70
2022/07/16 15:19:05;;;;;;;3.03;1.15;;;27.90;42.30;;;;;;4880528;28;87610;-72
2022/07/16 15:21:30;;;;;;;2.83;1.42;;;27.90;42.50;;;;;;4880477;28;87182;-72
2022/07/16 15:23:56;;;;;;;5.03;1.25;;;27.90;42.80;;;;;;4877405;28;87316;-73
2022/07/16 15:26:22;;;;;;;4.35;1.35;;;27.60;43.20;;;;;;4871694;28;87016;-71
2022/07/16 15:28:48;;;;;;;3.20;1.08;;;27.60;42.40;;;;;;4878043;28;87111;-71
2022/07/16 15:31:13;;;;;;;4.07;1.08;;;27.60;43.20;;;;;;4880772;28;87193;-73
2022/07/16 15:33:42;;;;;;;3.47;1.40;;;27.70;43.70;;;;;;4879999;28;87912;-74
2022/07/16 15:36:13;;;;;;;4.85;1.05;;;27.70;43.70;;;;;;4881324;28;87550;-71
2022/07/16 15:38:40;;;;;;;3.28;1.23;;;27.70;43.50;;;;;;4875219;28;86931;-70
2022/07/16 15:41:05;;;;;;;3.13;1.45;;;27.60;43.20;;;;;;4879823;28;89000;-74
2022/07/16 15:43:31;;;;;;;3.17;1.00;;;27.60;44.20;;;;;;4879930;28;87886;-74
2022/07/16 15:45:57;;;;;;;2.40;1.10;;;27.40;46.40;;;;;;4880103;28;87055;-76
2022/07/16 15:48:23;;;;;;;3.92;1.23;;;27.40;44.00;;;;;;4879826;28;87555;-70
2022/07/16 15:50:49;;;;;;;2.35;0.93;;;27.40;44.40;;;;;;4879344;28;87623;-71
2022/07/16 15:53:15;;;;;;;2.53;1.17;;;27.50;43.80;;;;;;4869946;28;87139;-71
2022/07/16 15:55:40;;;;;;;3.03;0.90;;;27.30;43.80;;;;;;4881800;28;87074;-72
2022/07/16 15:58:06;;;;;;;5.93;1.17;;;27.20;44.30;;;;;;4865648;28;86295;-74
2022/07/16 16:00:32;;;;;;;2.78;1.02;;;27.50;44.60;;;;;;4871199;28;87023;-71
2022/07/16 16:02:58;;;;;;;3.40;1.30;;;27.60;43.70;;;;;;4867872;28;86970;-74